Time;durP1;ratioP1;P1;durP2;ratioP2;P2;SDS_P1;SDS_P2;PMS_P1;PMS_P2;Temp;Humidity;BMP_temperature;BMP_pressure;BME280_temperature;BME280_humidity;BME280_pressure;Samples;Min_cycle;Max_cycle;Signal;HPM_P1;HPM_P2
2023/07/29 00:03:42;;;;;;;2.92;1.42;;;17.70;95.00;;;;;;20757979;28;20044;-43
2023/07/29 00:13:43;;;;;;;2.83;1.75;;;17.80;75.00;;;;;;20755206;28;20033;-43
2023/07/29 00:23:44;;;;;;;3.75;1.55;;;17.70;99.20;;;;;;20753668;28;20042;-42
2023/07/29 00:33:45;;;;;;;3.58;1.67;;;17.70;99.90;;;;;;20754942;28;20037;-43
2023/07/29 00:43:46;;;;;;;4.22;1.52;;;17.60;99.90;;;;;;20750680;28;20045;-42
2023/07/29 00:53:47;;;;;;;5.13;1.65;;;17.60;99.90;;;;;;20750787;28;20037;-42
2023/07/29 01:03:48;;;;;;;3.53;2.00;;;17.50;99.90;;;;;;20751856;28;20547;-43
2023/07/29 01:13:53;;;;;;;6.07;2.40;;;17.50;99.90;;;;;;20732161;28;20049;-43
2023/07/29 01:23:59;;;;;;;4.13;2.10;;;17.50;99.90;;;;;;20732471;28;20045;-43
2023/07/29 01:34:09;;;;;;;5.05;2.90;;;17.40;99.90;;;;;;20748947;28;20040;-43
2023/07/29 01:44:12;;;;;;;5.82;2.97;;;17.50;99.90;;;;;;20747937;28;20049;-43
2023/07/29 01:54:13;;;;;;;7.05;3.35;;;17.50;99.90;;;;;;20743140;28;20248;-42
2023/07/29 02:04:14;;;;;;;6.78;3.67;;;17.50;99.90;;;;;;20748562;28;20198;-42
2023/07/29 02:14:15;;;;;;;6.70;3.80;;;17.40;99.90;;;;;;20744451;28;20037;-43
2023/07/29 02:24:16;;;;;;;7.05;3.05;;;17.40;99.90;;;;;;20746226;28;20045;-43
2023/07/29 02:34:17;;;;;;;7.78;3.50;;;17.40;99.90;;;;;;20736719;28;20045;-42
2023/07/29 02:44:19;;;;;;;6.68;2.83;;;17.30;99.90;;;;;;20746396;28;20042;-43
2023/07/29 02:54:20;;;;;;;7.53;3.20;;;17.20;99.90;;;;;;20749555;28;20052;-43
2023/07/29 03:04:23;;;;;;;5.65;2.88;;;17.20;99.90;;;;;;20761958;28;20041;-42
2023/07/29 03:14:24;;;;;;;7.35;3.42;;;17.20;99.90;;;;;;20757617;28;20034;-43
2023/07/29 03:24:25;;;;;;;4.68;2.55;;;17.10;99.90;;;;;;20757117;28;20042;-43
2023/07/29 03:34:26;;;;;;;4.25;2.70;;;17.00;99.90;;;;;;20757324;28;20033;-43
2023/07/29 03:44:27;;;;;;;5.57;2.55;;;17.00;99.90;;;;;;20759579;28;20493;-43
2023/07/29 03:54:28;;;;;;;5.15;2.90;;;17.00;90.50;;;;;;20757223;28;20029;-43
2023/07/29 04:04:29;;;;;;;6.00;2.63;;;17.00;63.00;;;;;;20754632;28;20327;-43
2023/07/29 04:14:30;;;;;;;8.43;2.80;;;17.00;56.30;;;;;;20754227;28;20040;-43
2023/07/29 04:24:31;;;;;;;5.97;2.33;;;17.00;63.50;;;;;;20751248;28;20038;-43
2023/07/29 04:34:32;;;;;;;3.80;2.45;;;16.90;57.40;;;;;;20755824;28;20033;-43
2023/07/29 04:44:33;;;;;;;6.30;2.90;;;16.80;71.60;;;;;;20752524;28;20514;-43
2023/07/29 04:54:34;;;;;;;4.40;2.83;;;16.90;75.10;;;;;;20751444;28;20053;-43
2023/07/29 05:04:35;;;;;;;5.38;2.83;;;16.90;79.50;;;;;;20753687;28;20687;-43
2023/07/29 05:14:36;;;;;;;7.35;3.55;;;17.10;57.30;;;;;;20750448;28;20046;-42
2023/07/29 05:24:37;;;;;;;7.82;3.88;;;17.20;57.50;;;;;;20747828;28;20069;-42
2023/07/29 05:34:38;;;;;;;7.13;3.78;;;17.20;61.20;;;;;;20751114;28;20408;-43
2023/07/29 05:44:39;;;;;;;11.52;4.78;;;17.30;55.30;;;;;;20727598;28;20076;-43
2023/07/29 05:54:42;;;;;;;8.27;4.15;;;17.30;64.20;;;;;;20746297;28;20034;-43
2023/07/29 06:04:43;;;;;;;7.32;3.85;;;17.50;66.80;;;;;;20748513;28;20037;-43
2023/07/29 06:14:44;;;;;;;7.28;4.65;;;17.80;60.30;;;;;;20745846;28;20037;-43
2023/07/29 06:24:45;;;;;;;8.38;4.80;;;17.90;40.40;;;;;;20744582;28;20038;-43
2023/07/29 06:34:46;;;;;;;9.48;4.88;;;17.90;45.40;;;;;;20746373;28;20049;-43
2023/07/29 06:44:47;;;;;;;7.68;4.78;;;18.10;48.70;;;;;;20743993;28;20041;-43
2023/07/29 06:54:48;;;;;;;8.32;5.05;;;18.30;39.10;;;;;;20748037;28;20481;-43
2023/07/29 07:04:49;;;;;;;8.50;5.47;;;18.40;27.70;;;;;;20742520;28;20046;-43
2023/07/29 07:14:50;;;;;;;8.30;5.40;;;18.40;33.50;;;;;;20742758;28;20038;-43
2023/07/29 07:24:51;;;;;;;8.85;5.00;;;18.50;26.80;;;;;;20743239;28;20038;-43
2023/07/29 07:34:52;;;;;;;6.35;4.35;;;18.60;20.20;;;;;;20742887;28;20056;-43
2023/07/29 07:44:53;;;;;;;7.03;4.70;;;18.70;23.10;;;;;;20750656;28;20049;-43
2023/07/29 07:54:55;;;;;;;6.32;4.30;;;19.20;12.40;;;;;;20758586;28;20278;-43
2023/07/29 08:04:56;;;;;;;5.60;4.38;;;19.40;1.00;;;;;;20757337;28;20296;-43
2023/07/29 08:14:57;;;;;;;5.93;3.30;;;19.40;1.00;;;;;;20756662;28;20045;-43
2023/07/29 08:24:58;;;;;;;6.43;2.22;;;19.80;1.00;;;;;;20754841;28;21474;-43
2023/07/29 08:34:59;;;;;;;3.97;2.20;;;20.10;1.00;;;;;;20755805;28;20041;-43
2023/07/29 08:45:11;;;;;;;6.32;2.90;;;20.00;1.00;;;;;;20752429;28;20046;-44
2023/07/29 08:55:12;;;;;;;4.75;2.42;;;20.20;1.00;;;;;;20753440;28;20040;-44
2023/07/29 09:05:13;;;;;;;3.67;2.10;;;20.70;1.00;;;;;;20752057;28;20050;-44
2023/07/29 09:15:29;;;;;;;5.20;2.55;;;20.60;1.00;;;;;;20750793;28;20053;-44
2023/07/29 09:25:30;;;;;;;3.40;2.38;;;20.50;1.00;;;;;;20749729;28;20042;-44
2023/07/29 09:35:33;;;;;;;4.75;3.03;;;20.50;1.00;;;;;;20750721;28;20053;-44
2023/07/29 09:45:36;;;;;;;5.57;3.05;;;20.30;1.00;;;;;;20747746;28;21554;-44
2023/07/29 09:55:37;;;;;;;4.90;2.33;;;20.30;1.00;;;;;;20747746;28;20500;-42
2023/07/29 10:05:38;;;;;;;5.40;2.58;;;20.30;1.00;;;;;;20747371;28;20046;-42
2023/07/29 10:15:40;;;;;;;4.25;2.40;;;19.60;1.00;;;;;;20748348;28;20042;-41
2023/07/29 10:25:49;;;;;;;7.90;3.92;;;18.80;15.30;;;;;;20747639;28;20026;-42
2023/07/29 10:35:51;;;;;;;6.05;4.10;;;18.60;90.90;;;;;;20745741;28;20069;-42
2023/07/29 10:45:52;;;;;;;8.02;5.47;;;18.70;99.90;;;;;;20727674;28;20057;-42
2023/07/29 10:55:55;;;;;;;6.25;4.45;;;18.80;99.90;;;;;;20743644;28;20034;-42
2023/07/29 11:06:04;;;;;;;4.90;2.70;;;19.10;96.90;;;;;;20744867;28;20128;-43
2023/07/29 11:16:06;;;;;;;2.65;1.33;;;18.90;92.50;;;;;;20747986;28;21091;-43
2023/07/29 11:26:07;;;;;;;3.53;1.38;;;18.60;99.90;;;;;;20775680;28;20065;-43
2023/07/29 11:36:18;;;;;;;2.80;1.27;;;18.40;99.90;;;;;;20739919;28;20316;-43
2023/07/29 11:46:22;;;;;;;3.40;1.60;;;18.50;99.90;;;;;;20758855;28;20037;-43
2023/07/29 11:56:23;;;;;;;3.28;1.98;;;19.10;99.90;;;;;;20759628;28;20048;-43
2023/07/29 12:06:25;;;;;;;2.85;1.90;;;20.00;53.10;;;;;;20749262;28;20049;-43
2023/07/29 12:16:26;;;;;;;3.67;1.98;;;20.10;2.70;;;;;;20760088;28;20038;-44
2023/07/29 12:26:28;;;;;;;2.30;1.38;;;20.30;8.00;;;;;;20756382;28;20033;-44
2023/07/29 12:36:50;;;;;;;3.65;2.10;;;20.50;1.00;;;;;;20754884;28;20046;-44
2023/07/29 12:46:51;;;;;;;2.78;2.20;;;20.80;1.00;;;;;;20747296;28;20783;-44
2023/07/29 12:56:52;;;;;;;3.33;2.22;;;21.60;1.00;;;;;;20744762;28;20045;-44
2023/07/29 13:06:53;;;;;;;3.92;2.58;;;21.90;1.00;;;;;;20735609;28;20045;-44
2023/07/29 13:16:54;;;;;;;4.90;2.83;;;22.10;1.00;;;;;;20753594;28;20048;-44
2023/07/29 13:26:55;;;;;;;5.15;2.85;;;22.60;1.00;;;;;;20743975;28;20041;-44
2023/07/29 13:36:57;;;;;;;3.38;2.60;;;23.10;1.00;;;;;;20750846;28;20056;-44
2023/07/29 13:46:58;;;;;;;4.35;2.50;;;23.00;1.00;;;;;;20749279;28;20398;-44
2023/07/29 13:56:59;;;;;;;3.05;1.90;;;23.50;1.00;;;;;;20750018;28;20330;-44
2023/07/29 14:07:00;;;;;;;4.20;1.70;;;23.10;1.00;;;;;;20750740;28;20048;-44
2023/07/29 14:17:01;;;;;;;4.05;1.40;;;23.30;1.00;;;;;;20740858;28;20045;-44
2023/07/29 14:27:03;;;;;;;1.75;0.90;;;23.10;1.00;;;;;;20739339;28;20504;-43
2023/07/29 14:37:05;;;;;;;2.58;0.82;;;23.10;1.00;;;;;;20734463;28;20549;-44
2023/07/29 14:47:07;;;;;;;3.58;1.10;;;23.20;1.00;;;;;;20746416;28;20034;-44
2023/07/29 14:57:10;;;;;;;1.95;0.90;;;23.30;1.00;;;;;;20770906;28;20037;-43
2023/07/29 15:07:11;;;;;;;2.15;0.80;;;23.40;1.00;;;;;;20771926;28;20033;-44
2023/07/29 15:17:12;;;;;;;2.00;0.98;;;23.30;1.00;;;;;;20772830;28;20037;-42
2023/07/29 15:27:13;;;;;;;2.88;1.20;;;22.70;1.00;;;;;;20769086;28;20493;-42
2023/07/29 15:37:14;;;;;;;2.67;1.05;;;22.90;1.00;;;;;;20764895;28;20056;-42
2023/07/29 15:47:18;;;;;;;2.83;1.00;;;23.20;1.00;;;;;;20769855;28;20041;-42
2023/07/29 15:57:19;;;;;;;2.47;1.10;;;22.80;1.00;;;;;;20765693;28;20041;-42
2023/07/29 16:07:20;;;;;;;3.47;1.40;;;22.90;1.00;;;;;;20756524;28;20041;-42
2023/07/29 16:17:21;;;;;;;2.83;1.10;;;22.80;1.00;;;;;;20755922;28;20049;-42
2023/07/29 16:27:22;;;;;;;2.58;1.30;;;22.80;1.00;;;;;;20751415;28;20030;-42
2023/07/29 16:37:24;;;;;;;3.60;1.50;;;22.70;1.00;;;;;;20751615;28;20068;-42
2023/07/29 16:47:26;;;;;;;2.60;1.10;;;22.80;1.00;;;;;;20752797;28;20362;-42
2023/07/29 16:57:27;;;;;;;2.90;1.02;;;23.10;1.00;;;;;;20735013;28;20045;-42
2023/07/29 17:07:28;;;;;;;3.10;1.35;;;22.80;1.00;;;;;;20752229;28;20532;-42
2023/07/29 17:17:29;;;;;;;5.25;1.55;;;22.40;1.00;;;;;;20749557;28;20053;-42
2023/07/29 17:27:30;;;;;;;3.40;1.58;;;22.20;1.00;;;;;;20750326;28;20338;-42
2023/07/29 17:37:31;;;;;;;6.90;1.98;;;21.80;1.00;;;;;;20747893;28;20630;-43
2023/07/29 17:47:32;;;;;;;6.20;2.20;;;21.60;1.00;;;;;;20750250;28;20049;-42
2023/07/29 17:57:33;;;;;;;6.22;1.90;;;21.40;1.00;;;;;;20747534;28;21606;-42
2023/07/29 18:07:34;;;;;;;5.88;1.80;;;21.10;1.00;;;;;;20734648;28;20274;-42
2023/07/29 18:17:35;;;;;;;8.65;2.10;;;21.00;1.00;;;;;;20748186;28;20041;-42
2023/07/29 18:27:37;;;;;;;10.40;1.95;;;20.80;1.00;;;;;;20746853;28;20509;-42
2023/07/29 18:37:38;;;;;;;8.20;2.15;;;20.70;1.00;;;;;;20744504;28;20528;-42
2023/07/29 18:47:39;;;;;;;3.78;1.90;;;20.60;1.00;;;;;;20746531;28;20421;-42
2023/07/29 18:57:40;;;;;;;7.72;2.28;;;20.30;1.00;;;;;;20744014;28;20053;-42
2023/07/29 19:07:41;;;;;;;7.45;2.25;;;20.20;1.00;;;;;;20743795;28;20042;-42
2023/07/29 19:17:42;;;;;;;7.47;2.45;;;20.10;1.00;;;;;;20726522;28;20045;-42
2023/07/29 19:27:43;;;;;;;9.07;2.50;;;20.00;1.00;;;;;;20741046;28;20048;-42
2023/07/29 19:37:44;;;;;;;6.68;1.95;;;19.80;1.00;;;;;;20748186;28;20392;-42
2023/07/29 19:47:46;;;;;;;7.15;2.85;;;19.60;1.00;;;;;;20759115;28;20034;-42
2023/07/29 19:57:48;;;;;;;8.45;2.38;;;19.30;1.00;;;;;;20755511;28;20046;-42
2023/07/29 20:07:49;;;;;;;10.75;2.65;;;19.10;1.00;;;;;;20756540;28;20045;-42
2023/07/29 20:17:50;;;;;;;10.43;3.05;;;19.00;1.00;;;;;;20755545;28;20044;-42
2023/07/29 20:27:51;;;;;;;9.07;2.38;;;18.80;1.00;;;;;;20756345;28;20042;-42
2023/07/29 20:37:53;;;;;;;8.75;2.53;;;18.50;1.00;;;;;;20751230;28;25020;-42
2023/07/29 20:47:54;;;;;;;10.20;2.60;;;18.50;1.00;;;;;;20754836;28;20041;-42
2023/07/29 20:57:55;;;;;;;9.43;2.42;;;18.50;1.00;;;;;;20751760;28;20041;-42
2023/07/29 21:07:56;;;;;;;8.27;2.35;;;18.40;1.00;;;;;;20752706;28;20041;-42
2023/07/29 21:17:57;;;;;;;7.57;2.20;;;18.40;1.00;;;;;;20752951;28;20041;-42
2023/07/29 21:27:58;;;;;;;11.77;2.50;;;18.30;1.00;;;;;;20749041;28;21400;-42
2023/07/29 21:37:59;;;;;;;11.20;1.88;;;18.20;1.00;;;;;;20747433;28;20458;-42
2023/07/29 21:48:00;;;;;;;5.75;1.52;;;18.20;1.00;;;;;;20751391;28;20042;-42
2023/07/29 21:58:01;;;;;;;8.55;1.90;;;18.20;1.00;;;;;;20747104;28;20041;-42
2023/07/29 22:08:02;;;;;;;9.93;1.92;;;18.10;1.00;;;;;;20731078;28;20477;-42
2023/07/29 22:18:04;;;;;;;8.80;1.90;;;17.90;1.00;;;;;;20750000;28;20041;-41
2023/07/29 22:28:05;;;;;;;13.18;2.33;;;17.90;1.00;;;;;;20744822;28;20040;-42
2023/07/29 22:38:07;;;;;;;9.38;1.95;;;17.80;1.00;;;;;;20743987;28;20505;-42
2023/07/29 22:48:08;;;;;;;8.95;2.10;;;17.80;1.00;;;;;;20745123;28;20048;-42
2023/07/29 22:58:09;;;;;;;9.02;1.80;;;17.80;1.00;;;;;;20744935;28;20039;-42
2023/07/29 23:08:10;;;;;;;7.13;2.08;;;17.60;1.00;;;;;;20724317;28;20446;-42
2023/07/29 23:18:12;;;;;;;9.07;2.20;;;17.40;1.00;;;;;;20760915;28;20049;-42
2023/07/29 23:28:13;;;;;;;11.60;3.63;;;17.30;1.00;;;;;;20756359;28;20029;-42
2023/07/29 23:38:21;;;;;;;10.65;1.77;;;17.20;1.00;;;;;;20756059;28;20183;-42
2023/07/29 23:48:22;;;;;;;7.47;1.75;;;17.10;1.00;;;;;;20759048;28;20037;-41
2023/07/29 23:58:23;;;;;;;7.13;2.50;;;17.20;1.00;;;;;;20756380;28;20041;-41
